createdAt,value
2024-01-05T00:02:28.705Z,6.95
2024-01-05T00:04:56.915Z,10.18
2024-01-05T00:07:25.121Z,11.35
2024-01-05T00:09:53.135Z,13.15
2024-01-05T00:12:21.377Z,10.73
2024-01-05T00:14:49.849Z,7.43
2024-01-05T00:17:17.973Z,12.20
2024-01-05T00:19:47.418Z,11.80
2024-01-05T00:22:15.428Z,9.23
2024-01-05T00:24:43.543Z,8.07
2024-01-05T00:27:11.570Z,7.60
2024-01-05T00:29:40.001Z,10.00
2024-01-05T00:32:08.676Z,11.43
2024-01-05T00:34:37.343Z,9.10
2024-01-05T00:37:06.877Z,12.73
2024-01-05T00:39:34.975Z,7.68
2024-01-05T00:42:03.877Z,8.88
2024-01-05T00:44:31.982Z,11.75
2024-01-05T00:47:02.945Z,11.45
2024-01-05T00:49:31.182Z,8.98
2024-01-05T00:51:59.292Z,8.95
2024-01-05T00:54:29.182Z,9.82
2024-01-05T00:56:57.346Z,8.95
2024-01-05T00:59:25.387Z,7.22
2024-01-05T01:01:54.505Z,13.63
2024-01-05T01:04:22.920Z,8.13
2024-01-05T01:06:51.900Z,11.48
2024-01-05T01:09:20.032Z,11.45
2024-01-05T01:11:51.544Z,8.88
2024-01-05T01:14:19.725Z,8.93
2024-01-05T01:16:47.765Z,9.80
2024-01-05T01:19:15.940Z,13.52
2024-01-05T01:21:44.035Z,7.65
2024-01-05T01:24:12.012Z,11.00
2024-01-05T01:26:40.943Z,7.82
2024-01-05T01:29:10.758Z,13.60
2024-01-05T01:31:38.809Z,6.75
2024-01-05T01:34:06.972Z,6.22
2024-01-05T01:36:35.057Z,11.55
2024-01-05T01:39:05.943Z,12.65
2024-01-05T01:41:34.280Z,11.98
2024-01-05T01:44:02.367Z,7.32
2024-01-05T01:46:32.857Z,9.63
2024-01-05T01:49:01.014Z,11.13
2024-01-05T01:51:33.006Z,7.75
2024-01-05T01:54:01.112Z,10.35
2024-01-05T01:56:29.410Z,13.07
2024-01-05T01:58:57.489Z,9.90
2024-01-05T02:01:25.573Z,9.30
2024-01-05T02:03:55.531Z,8.48
2024-01-05T02:06:23.686Z,9.35
2024-01-05T02:08:52.430Z,8.95
2024-01-05T02:11:20.440Z,13.20
2024-01-05T02:13:49.410Z,7.15
2024-01-05T02:16:17.509Z,9.10
2024-01-05T02:18:52.382Z,8.30
2024-01-05T02:21:24.966Z,7.40
2024-01-05T02:23:54.789Z,6.80
2024-01-05T02:26:23.339Z,7.18
2024-01-05T02:28:51.363Z,9.25
2024-01-05T02:31:19.397Z,10.23
2024-01-05T02:33:47.592Z,8.13
2024-01-05T02:36:15.720Z,11.57
2024-01-05T02:38:43.794Z,11.38
2024-01-05T02:41:13.144Z,6.85
2024-01-05T02:43:41.189Z,8.95
2024-01-05T02:46:10.242Z,6.65
2024-01-05T02:48:38.434Z,11.32
2024-01-05T02:51:07.010Z,11.27
2024-01-05T02:53:35.226Z,12.32
2024-01-05T02:56:03.267Z,8.65
2024-01-05T02:58:32.636Z,12.48
2024-01-05T03:01:00.672Z,9.73
2024-01-05T03:03:28.768Z,12.27
2024-01-05T03:05:56.840Z,10.32
2024-01-05T03:08:24.812Z,13.02
2024-01-05T03:10:52.754Z,7.45
2024-01-05T03:13:20.740Z,14.30
2024-01-05T03:15:50.050Z,10.73
2024-01-05T03:18:18.185Z,11.82
2024-01-05T03:20:46.233Z,9.57
2024-01-05T03:23:15.853Z,8.23
2024-01-05T03:25:44.387Z,11.18
2024-01-05T03:28:13.594Z,9.15
2024-01-05T03:30:42.151Z,8.70
2024-01-05T03:33:12.159Z,10.85
2024-01-05T03:35:42.534Z,11.07
2024-01-05T03:38:10.527Z,10.88
2024-01-05T03:40:38.489Z,8.20
2024-01-05T03:43:06.484Z,7.10
2024-01-05T03:45:34.685Z,11.90
2024-01-05T03:48:02.879Z,8.68
2024-01-05T03:50:32.302Z,8.45
2024-01-05T03:53:00.286Z,8.50
2024-01-05T03:55:28.445Z,12.32
2024-01-05T03:57:56.422Z,12.57
2024-01-05T04:00:24.511Z,13.32
2024-01-05T04:02:52.606Z,9.55
2024-01-05T04:05:21.037Z,10.50
2024-01-05T04:07:50.385Z,8.50
2024-01-05T04:10:19.314Z,13.02
2024-01-05T04:12:49.566Z,9.43
2024-01-05T04:15:17.741Z,7.95
2024-01-05T04:17:45.787Z,5.90
2024-01-05T04:20:13.997Z,8.32
2024-01-05T04:22:41.995Z,5.03
2024-01-05T04:25:11.653Z,7.75
2024-01-05T04:27:40.458Z,6.60
2024-01-05T04:30:09.428Z,8.70
2024-01-05T04:32:37.604Z,7.10
2024-01-05T04:35:06.320Z,7.65
2024-01-05T04:37:34.293Z,6.88
2024-01-05T04:40:02.278Z,6.43
2024-01-05T04:42:31.755Z,8.13
2024-01-05T04:44:59.771Z,5.05
2024-01-05T04:47:28.092Z,7.80
2024-01-05T04:49:56.231Z,5.63
2024-01-05T04:52:24.284Z,7.50
2024-01-05T04:54:52.262Z,7.53
2024-01-05T04:57:20.286Z,4.93
2024-01-05T04:59:49.973Z,13.60
2024-01-05T05:02:17.951Z,5.07
2024-01-05T05:04:47.386Z,8.15
2024-01-05T05:07:16.889Z,7.30
2024-01-05T05:09:44.921Z,6.13
2024-01-05T05:12:13.167Z,5.40
2024-01-05T05:14:41.181Z,5.15
2024-01-05T05:17:10.519Z,6.15
2024-01-05T05:19:38.632Z,11.38
2024-01-05T05:22:07.458Z,6.55
2024-01-05T05:24:36.136Z,7.28
2024-01-05T05:27:04.177Z,7.07
2024-01-05T05:29:32.201Z,9.18
2024-01-05T05:32:00.200Z,4.15
2024-01-05T05:34:29.717Z,5.18
2024-01-05T05:36:57.812Z,5.18
2024-01-05T05:39:26.230Z,3.08
2024-01-05T05:41:54.275Z,6.60
2024-01-05T05:44:22.370Z,6.05
2024-01-05T05:46:50.377Z,6.18
2024-01-05T05:49:18.457Z,6.47
2024-01-05T05:51:48.301Z,5.72
2024-01-05T05:54:16.939Z,5.78
2024-01-05T05:56:44.946Z,5.63
2024-01-05T05:59:12.969Z,5.03
2024-01-05T06:01:41.063Z,4.88
2024-01-05T06:04:09.447Z,3.90
2024-01-05T06:06:38.005Z,7.45
2024-01-05T06:09:08.709Z,6.80
2024-01-05T06:11:36.748Z,7.13
2024-01-05T06:14:05.504Z,6.85
2024-01-05T06:16:33.538Z,6.28
2024-01-05T06:19:01.616Z,5.93
2024-01-05T06:21:29.801Z,4.38
2024-01-05T06:23:58.057Z,6.55
2024-01-05T06:26:27.410Z,6.20
2024-01-05T06:28:55.386Z,7.85
2024-01-05T06:31:24.257Z,4.50
2024-01-05T06:33:52.423Z,7.22
2024-01-05T06:36:20.831Z,8.48
2024-01-05T06:38:48.829Z,7.68
2024-01-05T06:41:16.823Z,5.13
2024-01-05T06:43:46.140Z,4.30
2024-01-05T06:46:14.164Z,7.43
2024-01-05T06:48:42.345Z,5.30
2024-01-05T06:51:10.512Z,8.77
2024-01-05T06:53:38.584Z,9.30
2024-01-05T06:56:09.671Z,8.40
2024-01-05T06:58:37.675Z,3.10
2024-01-05T07:01:07.680Z,5.35
2024-01-05T07:03:35.776Z,6.10
2024-01-05T07:06:04.201Z,6.68
2024-01-05T07:08:32.251Z,4.85
2024-01-05T07:11:00.275Z,7.28
2024-01-05T07:13:28.401Z,4.43
2024-01-05T07:15:56.497Z,6.32
2024-01-05T07:18:25.987Z,3.78
2024-01-05T07:20:54.186Z,5.97
2024-01-05T07:23:22.592Z,4.60
2024-01-05T07:25:50.570Z,5.00
2024-01-05T07:28:18.663Z,6.30
2024-01-05T07:30:46.696Z,6.80
2024-01-05T07:33:14.945Z,5.95
2024-01-05T07:35:44.816Z,7.38
2024-01-05T07:38:12.846Z,2.47
2024-01-05T07:40:40.843Z,2.55
2024-01-05T07:43:10.241Z,5.60
2024-01-05T07:45:38.281Z,2.33
2024-01-05T07:48:07.377Z,2.92
2024-01-05T07:50:35.955Z,3.00
2024-01-05T07:53:05.559Z,4.18
2024-01-05T07:55:33.657Z,6.40
2024-01-05T07:58:01.710Z,4.07
2024-01-05T08:00:29.735Z,1.98
2024-01-05T08:02:57.910Z,2.97
2024-01-05T08:05:26.051Z,1.58
2024-01-05T08:07:54.129Z,2.83
2024-01-05T08:10:25.399Z,1.38
2024-01-05T08:12:55.256Z,1.63
2024-01-05T08:15:23.356Z,2.00
2024-01-05T08:17:51.440Z,1.48
2024-01-05T08:20:19.478Z,2.15
2024-01-05T08:22:47.496Z,3.22
2024-01-05T08:25:15.699Z,2.08
2024-01-05T08:27:45.248Z,2.05
2024-01-05T08:30:14.483Z,4.50
2024-01-05T08:32:43.579Z,1.58
2024-01-05T08:35:11.959Z,2.33
2024-01-05T08:37:39.988Z,1.50
2024-01-05T08:40:09.259Z,1.40
2024-01-05T08:42:37.764Z,2.42
2024-01-05T08:45:08.068Z,2.10
2024-01-05T08:47:36.128Z,1.30
2024-01-05T08:50:04.326Z,2.00
2024-01-05T08:52:32.428Z,1.50
2024-01-05T08:55:00.418Z,2.40
2024-01-05T08:57:28.505Z,2.67
2024-01-05T08:59:56.595Z,3.08
2024-01-05T09:02:26.144Z,3.05
2024-01-05T09:04:54.253Z,2.75
2024-01-05T09:07:22.317Z,2.78
2024-01-05T09:09:50.321Z,1.95
2024-01-05T09:12:18.467Z,2.05
2024-01-05T09:14:46.529Z,4.43
2024-01-05T09:17:14.620Z,3.67
2024-01-05T09:19:44.705Z,3.63
2024-01-05T09:22:13.126Z,2.75
2024-01-05T09:24:41.397Z,2.38
2024-01-05T09:27:09.522Z,3.58
2024-01-05T09:29:37.780Z,3.55
2024-01-05T09:32:06.475Z,5.32
2024-01-05T09:34:34.598Z,2.20
2024-01-05T09:37:04.208Z,1.33
2024-01-05T09:39:32.719Z,1.67
2024-01-05T09:42:00.929Z,2.42
2024-01-05T09:44:29.534Z,4.50
2024-01-05T09:46:59.203Z,2.10
2024-01-05T09:49:27.830Z,2.65
2024-01-05T09:51:58.205Z,3.10
2024-01-05T09:54:27.757Z,2.53
2024-01-05T09:56:55.975Z,2.60
2024-01-05T09:59:25.224Z,3.03
2024-01-05T10:01:53.502Z,3.72
2024-01-05T10:04:21.735Z,2.83
2024-01-05T10:07:02.639Z,6.85
2024-01-05T10:09:32.960Z,4.65
2024-01-05T10:12:01.106Z,4.57
2024-01-05T10:14:30.596Z,4.03
2024-01-05T10:17:10.137Z,4.53
2024-01-05T10:19:40.652Z,3.25
2024-01-05T10:22:12.727Z,7.00
2024-01-05T10:24:43.482Z,2.67
2024-01-05T10:27:13.354Z,5.32
2024-01-05T10:29:44.206Z,5.38
2024-01-05T10:32:14.041Z,3.83
2024-01-05T10:34:43.290Z,4.68
2024-01-05T10:37:12.078Z,1.85
2024-01-05T10:39:47.163Z,4.18
2024-01-05T10:42:23.522Z,3.45
2024-01-05T10:44:53.720Z,3.53
2024-01-05T10:47:22.719Z,3.95
2024-01-05T10:49:52.493Z,3.40
2024-01-05T10:52:21.523Z,4.32
2024-01-05T10:54:52.850Z,5.15
2024-01-05T10:57:22.058Z,8.52
2024-01-05T10:59:51.533Z,5.30
2024-01-05T11:02:23.524Z,3.25
2024-01-05T11:05:01.056Z,3.75
2024-01-05T11:07:34.712Z,4.32
2024-01-05T11:10:14.890Z,4.38
2024-01-05T11:13:04.742Z,7.80
2024-01-05T11:15:48.866Z,3.38
2024-01-05T11:18:47.162Z,4.88
2024-01-05T11:21:17.817Z,4.65
2024-01-05T11:23:46.634Z,5.78
2024-01-05T11:26:36.505Z,4.07
2024-01-05T11:29:05.177Z,5.90
2024-01-05T11:31:51.729Z,2.33
2024-01-05T11:34:33.001Z,2.92
2024-01-05T11:39:46.682Z,6.82
2024-01-05T11:42:34.325Z,5.70
2024-01-05T11:45:04.056Z,4.82
2024-01-05T11:47:45.792Z,7.68
2024-01-05T11:50:31.739Z,6.10
2024-01-05T11:53:14.105Z,5.55
2024-01-05T11:55:49.662Z,7.57
2024-01-05T11:58:20.304Z,8.73
2024-01-05T12:00:49.594Z,9.23
2024-01-05T12:03:20.798Z,7.85
2024-01-05T12:05:53.153Z,5.25
2024-01-05T12:08:21.560Z,5.75
2024-01-05T12:10:54.091Z,6.95
2024-01-05T12:13:26.035Z,5.65
2024-01-05T12:16:00.890Z,8.95
2024-01-05T12:18:37.497Z,7.50
2024-01-05T12:21:08.821Z,11.57
2024-01-05T12:23:38.546Z,9.50
2024-01-05T12:26:07.806Z,6.22
2024-01-05T12:28:38.499Z,5.53
2024-01-05T12:31:08.736Z,9.38
2024-01-05T12:33:39.350Z,7.53
2024-01-05T12:36:11.162Z,9.38
2024-01-05T12:38:40.029Z,6.82
2024-01-05T12:41:09.623Z,5.35
2024-01-05T12:43:39.361Z,6.65
2024-01-05T12:46:07.472Z,5.63
2024-01-05T12:48:35.843Z,6.50
2024-01-05T12:51:08.028Z,7.45
2024-01-05T12:53:36.379Z,7.32
2024-01-05T12:56:09.152Z,5.68
2024-01-05T12:58:42.397Z,8.00
2024-01-05T13:01:18.215Z,8.63
2024-01-05T13:03:53.817Z,7.28
2024-01-05T13:06:23.052Z,7.85
2024-01-05T13:08:51.449Z,10.05
2024-01-05T13:11:21.053Z,7.35
2024-01-05T13:13:51.597Z,9.35
2024-01-05T13:20:29.996Z,7.38
2024-01-05T13:22:59.799Z,8.27
2024-01-05T13:25:27.978Z,10.70
2024-01-05T13:27:56.065Z,8.88
2024-01-05T13:30:25.660Z,8.48
2024-01-05T13:32:53.872Z,11.63
2024-01-05T13:35:22.193Z,7.28
2024-01-05T13:37:50.223Z,10.13
2024-01-05T13:40:18.425Z,8.57
2024-01-05T13:42:46.414Z,9.80
2024-01-05T13:45:14.472Z,7.57
2024-01-05T13:47:43.959Z,8.30
2024-01-05T13:50:12.012Z,10.18
2024-01-05T13:52:40.256Z,8.02
2024-01-05T13:55:09.028Z,9.55
2024-01-05T13:57:37.053Z,7.97
2024-01-05T14:00:07.459Z,11.38
2024-01-05T14:02:36.408Z,8.98
2024-01-05T14:05:06.555Z,12.10
2024-01-05T14:07:34.718Z,10.93
2024-01-05T14:10:03.867Z,10.38
2024-01-05T14:12:32.690Z,11.38
2024-01-05T14:15:01.177Z,13.80
2024-01-05T14:17:34.705Z,9.73
2024-01-05T14:23:01.759Z,10.00
2024-01-05T14:25:34.700Z,11.32
2024-01-05T14:28:02.733Z,10.52
2024-01-05T14:30:30.857Z,12.43
2024-01-05T14:32:59.220Z,8.77
2024-01-05T14:35:27.266Z,10.68
2024-01-05T14:37:56.629Z,8.77
2024-01-05T14:40:25.027Z,9.88
2024-01-05T14:42:55.981Z,9.80
2024-01-05T14:45:25.394Z,6.90
2024-01-05T14:47:55.736Z,10.00
2024-01-05T14:50:23.857Z,12.05
2024-01-05T14:52:59.566Z,11.18
2024-01-05T14:55:33.653Z,11.07
2024-01-05T14:58:02.142Z,6.40
2024-01-05T15:00:33.735Z,7.60
2024-01-05T15:03:04.989Z,9.13
2024-01-05T15:05:33.243Z,10.40
2024-01-05T15:08:03.169Z,11.70
2024-01-05T15:10:32.934Z,7.68
2024-01-05T15:13:02.614Z,8.32
2024-01-05T15:15:31.535Z,7.30
2024-01-05T15:18:00.048Z,7.95
2024-01-05T15:20:28.292Z,5.97
2024-01-05T15:22:56.353Z,7.68
2024-01-05T15:25:24.380Z,9.18
2024-01-05T15:27:55.706Z,8.88
2024-01-05T15:30:26.005Z,7.65
2024-01-05T15:32:54.413Z,8.10
2024-01-05T15:35:23.057Z,8.38
2024-01-05T15:37:51.400Z,8.68
2024-01-05T15:42:50.762Z,17.45
2024-01-05T15:45:19.224Z,16.15
2024-01-05T15:47:49.127Z,7.30
2024-01-05T15:50:17.426Z,9.98
2024-01-05T15:52:45.420Z,9.70
2024-01-05T15:55:15.055Z,11.27
2024-01-05T15:57:43.305Z,7.60
2024-01-05T16:00:12.294Z,9.18
2024-01-05T16:05:57.007Z,8.32
2024-01-05T16:08:25.221Z,8.10
2024-01-05T16:10:53.276Z,7.18
2024-01-05T16:13:21.293Z,12.55
2024-01-05T16:16:40.325Z,10.85
2024-01-05T16:19:08.844Z,10.93
2024-01-05T16:21:38.486Z,8.57
2024-01-05T16:24:07.871Z,10.00
2024-01-05T16:26:36.275Z,8.40
2024-01-05T16:32:03.179Z,9.55
2024-01-05T16:34:31.536Z,11.65
2024-01-05T16:37:01.026Z,11.40
2024-01-05T16:40:11.237Z,10.32
2024-01-05T16:42:39.494Z,10.40
2024-01-05T16:45:09.864Z,9.55
2024-01-05T16:47:38.207Z,7.53
2024-01-05T16:50:06.820Z,8.55
2024-01-05T16:53:44.279Z,11.35
2024-01-05T16:56:15.288Z,11.20
2024-01-05T16:58:44.438Z,9.02
2024-01-05T17:01:13.150Z,16.92
2024-01-05T17:03:41.490Z,13.60
2024-01-05T17:06:27.927Z,11.63
2024-01-05T17:08:56.459Z,10.40
2024-01-05T17:11:27.007Z,9.00
2024-01-05T17:13:59.450Z,11.23
2024-01-05T17:16:55.782Z,8.13
2024-01-05T17:19:23.864Z,9.65
2024-01-05T17:21:52.947Z,9.13
2024-01-05T17:24:21.864Z,11.85
2024-01-05T17:26:51.428Z,10.48
2024-01-05T17:29:19.543Z,10.25
2024-01-05T17:32:02.203Z,9.95
2024-01-05T17:34:30.212Z,12.45
2024-01-05T17:37:01.401Z,12.90
2024-01-05T17:39:29.526Z,15.52
2024-01-05T17:41:58.863Z,13.00
2024-01-05T17:59:12.292Z,16.40
2024-01-05T18:01:48.043Z,10.75
2024-01-05T18:04:17.215Z,24.08
2024-01-05T18:06:46.106Z,10.07
2024-01-05T18:09:14.481Z,13.35
2024-01-05T18:11:47.398Z,12.30
2024-01-05T18:14:19.984Z,17.13
2024-01-05T18:19:18.545Z,148.88
2024-01-05T18:21:48.541Z,160.77
2024-01-05T18:24:32.441Z,60.03
2024-01-05T18:27:20.979Z,13.82
2024-01-05T18:29:49.109Z,18.98
2024-01-05T18:32:18.509Z,16.45
2024-01-05T18:34:48.657Z,15.95
2024-01-05T18:40:42.178Z,10.13
2024-01-05T18:43:14.340Z,16.35
2024-01-05T18:45:42.460Z,11.60
2024-01-05T18:48:49.610Z,9.05
2024-01-05T18:51:22.037Z,9.38
2024-01-05T18:53:50.223Z,7.53
2024-01-05T18:56:18.397Z,9.90
2024-01-05T18:58:46.527Z,10.07
2024-01-05T19:01:29.532Z,11.00
2024-01-05T19:03:58.344Z,10.82
2024-01-05T19:06:28.174Z,11.50
2024-01-05T19:08:56.378Z,10.48
2024-01-05T19:11:24.855Z,9.93
2024-01-05T19:13:53.072Z,12.45
2024-01-05T19:16:22.128Z,10.13
2024-01-05T19:18:53.193Z,10.20
2024-01-05T19:21:21.291Z,12.18
2024-01-05T19:23:50.685Z,9.77
2024-01-05T19:26:41.292Z,11.93
2024-01-05T19:29:15.834Z,7.43
2024-01-05T19:31:44.718Z,9.40
2024-01-05T19:34:13.526Z,12.63
2024-01-05T19:36:45.269Z,9.98
2024-01-05T19:39:31.428Z,7.80
2024-01-05T19:42:00.702Z,9.80
2024-01-05T19:44:28.724Z,10.68
2024-01-05T19:46:56.838Z,7.03
2024-01-05T19:49:25.006Z,8.60
2024-01-05T19:52:49.954Z,9.85
2024-01-05T19:55:20.414Z,7.90
2024-01-05T19:57:50.529Z,10.50
2024-01-05T20:00:19.201Z,8.63
2024-01-05T20:06:21.003Z,9.05
2024-01-05T20:08:49.616Z,12.40
2024-01-05T20:11:19.781Z,11.23
2024-01-05T20:13:47.812Z,10.63
2024-01-05T20:16:37.268Z,9.38
2024-01-05T20:19:07.915Z,11.10
2024-01-05T20:21:36.441Z,10.55
2024-01-05T20:24:05.051Z,11.48
2024-01-05T20:26:35.856Z,11.95
2024-01-05T20:29:04.084Z,8.85
2024-01-05T20:31:33.734Z,9.88
2024-01-05T20:34:02.451Z,8.90
2024-01-05T20:36:30.628Z,8.95
2024-01-05T20:40:33.643Z,13.95
2024-01-05T20:43:03.496Z,10.98
2024-01-05T20:45:31.566Z,11.50
2024-01-05T20:47:59.816Z,12.43
2024-01-05T20:53:17.745Z,13.27
2024-01-05T20:55:46.471Z,12.25
2024-01-05T20:58:15.930Z,10.60
2024-01-05T21:00:44.028Z,13.75
2024-01-05T21:03:12.075Z,10.18
2024-01-05T21:05:41.036Z,9.48
2024-01-05T21:08:09.132Z,11.00
2024-01-05T21:10:37.162Z,10.10
2024-01-05T21:13:05.634Z,8.18
2024-01-05T21:15:35.060Z,12.68
2024-01-05T21:18:03.137Z,11.88
2024-01-05T21:20:31.657Z,10.73
2024-01-05T21:23:01.637Z,9.40
2024-01-05T21:25:30.703Z,13.15
2024-01-05T21:27:59.310Z,7.55
2024-01-05T21:30:47.412Z,9.25
2024-01-05T21:33:44.990Z,9.02
2024-01-05T21:36:13.901Z,10.20
2024-01-05T21:38:42.112Z,10.38
2024-01-05T21:41:10.176Z,10.98
2024-01-05T21:44:31.562Z,9.13
2024-01-05T21:46:32.916Z,9.15
2024-01-05T21:49:02.361Z,9.02
2024-01-05T21:51:33.403Z,9.63
2024-01-05T21:54:01.937Z,10.63
2024-01-05T21:56:29.995Z,9.85
2024-01-05T21:58:58.101Z,9.70
2024-01-05T22:01:26.204Z,11.77
2024-01-05T22:03:54.371Z,10.10
2024-01-05T22:06:24.561Z,10.90
2024-01-05T22:08:54.875Z,15.63
2024-01-05T22:11:23.141Z,11.07
2024-01-05T22:13:51.296Z,9.13
2024-01-05T22:16:19.598Z,10.82
2024-01-05T22:18:47.942Z,12.07
2024-01-05T22:21:16.163Z,14.27
2024-01-05T22:23:46.961Z,13.60
2024-01-05T22:26:20.442Z,13.65
2024-01-05T22:28:50.209Z,13.82
2024-01-05T22:31:18.476Z,13.88
2024-01-05T22:33:47.203Z,12.18
2024-01-05T22:36:16.561Z,11.90
2024-01-05T22:38:48.246Z,11.57
2024-01-05T22:41:16.313Z,13.27
2024-01-05T22:43:47.230Z,14.45
2024-01-05T22:46:17.448Z,14.13
2024-01-05T22:48:47.179Z,12.82
2024-01-05T22:51:25.633Z,16.50
2024-01-05T22:53:55.211Z,13.73
2024-01-05T22:56:23.374Z,15.40
2024-01-05T22:58:51.443Z,15.90
2024-01-05T23:01:23.411Z,17.95
2024-01-05T23:03:53.355Z,16.05
2024-01-05T23:06:21.986Z,14.73
2024-01-05T23:08:53.392Z,16.27
2024-01-05T23:11:23.147Z,17.85
2024-01-05T23:13:55.140Z,18.02
2024-01-05T23:16:23.128Z,16.45
2024-01-05T23:18:51.862Z,16.55
2024-01-05T23:21:19.939Z,15.88
2024-01-05T23:23:49.215Z,14.98
2024-01-05T23:26:18.353Z,15.15
2024-01-05T23:28:50.557Z,14.38
2024-01-05T23:31:20.930Z,19.23
2024-01-05T23:34:04.217Z,14.45
2024-01-05T23:36:38.873Z,13.98
2024-01-05T23:39:06.969Z,15.32
2024-01-05T23:41:34.963Z,15.27
2024-01-05T23:44:04.764Z,15.63
2024-01-05T23:46:32.858Z,17.17
2024-01-05T23:49:00.959Z,16.48
2024-01-05T23:51:29.064Z,16.67
2024-01-05T23:53:57.417Z,16.42
2024-01-05T23:56:28.075Z,15.52
2024-01-05T23:58:56.116Z,16.65
